sensor_id;sensor_type;location;lat;lon;timestamp;P1;durP1;ratioP1;P2;durP2;ratioP2
4565;SDS011;2295;51.050;14.608;2022-12-18T00:01:34;39.03;;;15.63;;
4565;SDS011;2295;51.050;14.608;2022-12-18T00:04:14;38.53;;;14.18;;
4565;SDS011;2295;51.050;14.608;2022-12-18T00:07:00;40.85;;;14.18;;
4565;SDS011;2295;51.050;14.608;2022-12-18T00:09:29;35.55;;;14.75;;
4565;SDS011;2295;51.050;14.608;2022-12-18T00:12:06;31.65;;;12.90;;
4565;SDS011;2295;51.050;14.608;2022-12-18T00:14:44;30.00;;;11.52;;
4565;SDS011;2295;51.050;14.608;2022-12-18T00:17:16;28.33;;;11.05;;
4565;SDS011;2295;51.050;14.608;2022-12-18T00:19:47;21.42;;;9.07;;
4565;SDS011;2295;51.050;14.608;2022-12-18T00:22:21;26.23;;;10.05;;
4565;SDS011;2295;51.050;14.608;2022-12-18T00:25:11;28.58;;;11.57;;
4565;SDS011;2295;51.050;14.608;2022-12-18T00:27:55;28.20;;;11.30;;
4565;SDS011;2295;51.050;14.608;2022-12-18T00:30:24;27.85;;;11.68;;
4565;SDS011;2295;51.050;14.608;2022-12-18T00:32:52;28.85;;;10.32;;
4565;SDS011;2295;51.050;14.608;2022-12-18T00:35:21;25.70;;;10.32;;
4565;SDS011;2295;51.050;14.608;2022-12-18T00:38:00;25.70;;;9.85;;
4565;SDS011;2295;51.050;14.608;2022-12-18T00:40:36;24.70;;;10.07;;
4565;SDS011;2295;51.050;14.608;2022-12-18T00:43:14;23.02;;;9.80;;
4565;SDS011;2295;51.050;14.608;2022-12-18T00:45:43;27.60;;;10.50;;
4565;SDS011;2295;51.050;14.608;2022-12-18T00:48:19;21.45;;;8.85;;
4565;SDS011;2295;51.050;14.608;2022-12-18T00:50:52;26.80;;;9.73;;
4565;SDS011;2295;51.050;14.608;2022-12-18T00:53:22;25.10;;;9.65;;
4565;SDS011;2295;51.050;14.608;2022-12-18T00:55:57;32.67;;;12.07;;
4565;SDS011;2295;51.050;14.608;2022-12-18T00:58:26;28.10;;;11.07;;
4565;SDS011;2295;51.050;14.608;2022-12-18T01:00:54;28.52;;;11.20;;
4565;SDS011;2295;51.050;14.608;2022-12-18T01:03:23;33.17;;;11.00;;
4565;SDS011;2295;51.050;14.608;2022-12-18T01:05:53;32.55;;;12.82;;
4565;SDS011;2295;51.050;14.608;2022-12-18T01:08:23;32.42;;;12.48;;
4565;SDS011;2295;51.050;14.608;2022-12-18T01:10:55;23.60;;;10.20;;
4565;SDS011;2295;51.050;14.608;2022-12-18T01:13:29;25.52;;;11.20;;
4565;SDS011;2295;51.050;14.608;2022-12-18T01:16:17;38.38;;;14.15;;
4565;SDS011;2295;51.050;14.608;2022-12-18T01:18:52;31.30;;;12.77;;
4565;SDS011;2295;51.050;14.608;2022-12-18T01:21:25;35.40;;;13.00;;
4565;SDS011;2295;51.050;14.608;2022-12-18T01:23:58;24.02;;;9.68;;
4565;SDS011;2295;51.050;14.608;2022-12-18T01:26:27;30.20;;;10.55;;
4565;SDS011;2295;51.050;14.608;2022-12-18T01:29:01;31.50;;;11.57;;
4565;SDS011;2295;51.050;14.608;2022-12-18T01:31:37;26.05;;;10.65;;
4565;SDS011;2295;51.050;14.608;2022-12-18T01:34:13;25.75;;;9.45;;
4565;SDS011;2295;51.050;14.608;2022-12-18T01:36:42;29.17;;;10.00;;
4565;SDS011;2295;51.050;14.608;2022-12-18T01:39:21;37.42;;;11.90;;
4565;SDS011;2295;51.050;14.608;2022-12-18T01:41:54;35.22;;;12.90;;
4565;SDS011;2295;51.050;14.608;2022-12-18T01:44:57;28.05;;;11.13;;
4565;SDS011;2295;51.050;14.608;2022-12-18T01:47:30;30.25;;;10.45;;
4565;SDS011;2295;51.050;14.608;2022-12-18T01:50:07;27.67;;;11.43;;
4565;SDS011;2295;51.050;14.608;2022-12-18T01:52:39;30.75;;;10.15;;
4565;SDS011;2295;51.050;14.608;2022-12-18T01:55:24;39.83;;;12.23;;
4565;SDS011;2295;51.050;14.608;2022-12-18T01:58:13;31.20;;;11.90;;
4565;SDS011;2295;51.050;14.608;2022-12-18T02:01:01;37.40;;;11.98;;
4565;SDS011;2295;51.050;14.608;2022-12-18T02:03:46;26.65;;;10.93;;
4565;SDS011;2295;51.050;14.608;2022-12-18T02:06:33;30.42;;;10.88;;
4565;SDS011;2295;51.050;14.608;2022-12-18T02:09:23;36.20;;;12.18;;
4565;SDS011;2295;51.050;14.608;2022-12-18T02:12:19;34.90;;;11.75;;
4565;SDS011;2295;51.050;14.608;2022-12-18T02:14:58;30.85;;;10.63;;
4565;SDS011;2295;51.050;14.608;2022-12-18T02:17:47;39.15;;;12.55;;
4565;SDS011;2295;51.050;14.608;2022-12-18T02:20:50;34.58;;;10.10;;
4565;SDS011;2295;51.050;14.608;2022-12-18T02:23:47;31.08;;;10.52;;
4565;SDS011;2295;51.050;14.608;2022-12-18T02:26:45;30.80;;;10.65;;
4565;SDS011;2295;51.050;14.608;2022-12-18T02:29:42;34.70;;;10.07;;
4565;SDS011;2295;51.050;14.608;2022-12-18T02:32:36;32.47;;;9.30;;
4565;SDS011;2295;51.050;14.608;2022-12-18T02:35:32;30.35;;;8.70;;
4565;SDS011;2295;51.050;14.608;2022-12-18T02:38:23;30.15;;;8.43;;
4565;SDS011;2295;51.050;14.608;2022-12-18T02:41:11;20.85;;;8.60;;
4565;SDS011;2295;51.050;14.608;2022-12-18T02:44:06;30.05;;;9.20;;
4565;SDS011;2295;51.050;14.608;2022-12-18T02:47:08;29.02;;;9.80;;
4565;SDS011;2295;51.050;14.608;2022-12-18T02:50:07;27.23;;;10.02;;
4565;SDS011;2295;51.050;14.608;2022-12-18T02:53:05;33.47;;;10.43;;
4565;SDS011;2295;51.050;14.608;2022-12-18T02:55:53;33.70;;;10.60;;
4565;SDS011;2295;51.050;14.608;2022-12-18T02:58:33;31.15;;;10.45;;
4565;SDS011;2295;51.050;14.608;2022-12-18T03:01:16;38.33;;;10.82;;
4565;SDS011;2295;51.050;14.608;2022-12-18T03:03:54;27.05;;;9.75;;
4565;SDS011;2295;51.050;14.608;2022-12-18T03:06:27;33.22;;;9.30;;
4565;SDS011;2295;51.050;14.608;2022-12-18T03:08:59;25.83;;;9.73;;
4565;SDS011;2295;51.050;14.608;2022-12-18T03:11:38;19.70;;;8.77;;
4565;SDS011;2295;51.050;14.608;2022-12-18T03:14:33;33.53;;;9.82;;
4565;SDS011;2295;51.050;14.608;2022-12-18T03:17:16;25.58;;;9.55;;
4565;SDS011;2295;51.050;14.608;2022-12-18T03:20:19;27.08;;;9.63;;
4565;SDS011;2295;51.050;14.608;2022-12-18T03:23:20;20.00;;;8.20;;
4565;SDS011;2295;51.050;14.608;2022-12-18T03:26:11;22.73;;;8.45;;
4565;SDS011;2295;51.050;14.608;2022-12-18T03:29:07;24.45;;;8.52;;
4565;SDS011;2295;51.050;14.608;2022-12-18T03:31:55;22.77;;;7.90;;
4565;SDS011;2295;51.050;14.608;2022-12-18T03:34:56;27.83;;;9.50;;
4565;SDS011;2295;51.050;14.608;2022-12-18T03:37:51;23.13;;;9.25;;
4565;SDS011;2295;51.050;14.608;2022-12-18T03:40:35;24.08;;;9.15;;
4565;SDS011;2295;51.050;14.608;2022-12-18T03:43:31;25.02;;;8.80;;
4565;SDS011;2295;51.050;14.608;2022-12-18T03:46:11;32.25;;;9.52;;
4565;SDS011;2295;51.050;14.608;2022-12-18T03:48:51;21.23;;;8.40;;
4565;SDS011;2295;51.050;14.608;2022-12-18T03:51:31;24.80;;;9.60;;
4565;SDS011;2295;51.050;14.608;2022-12-18T03:54:06;24.02;;;9.13;;
4565;SDS011;2295;51.050;14.608;2022-12-18T03:56:38;25.23;;;8.40;;
4565;SDS011;2295;51.050;14.608;2022-12-18T03:59:10;23.30;;;8.48;;
4565;SDS011;2295;51.050;14.608;2022-12-18T04:01:46;27.65;;;10.40;;
4565;SDS011;2295;51.050;14.608;2022-12-18T04:04:52;19.42;;;8.20;;
4565;SDS011;2295;51.050;14.608;2022-12-18T04:07:57;32.17;;;9.10;;
4565;SDS011;2295;51.050;14.608;2022-12-18T04:11:04;17.90;;;7.68;;
4565;SDS011;2295;51.050;14.608;2022-12-18T04:14:06;30.42;;;9.00;;
4565;SDS011;2295;51.050;14.608;2022-12-18T04:17:09;22.45;;;8.95;;
4565;SDS011;2295;51.050;14.608;2022-12-18T04:20:24;28.80;;;8.75;;
4565;SDS011;2295;51.050;14.608;2022-12-18T04:23:22;18.83;;;7.95;;
4565;SDS011;2295;51.050;14.608;2022-12-18T04:26:27;29.15;;;9.73;;
4565;SDS011;2295;51.050;14.608;2022-12-18T04:28:56;18.90;;;8.45;;
4565;SDS011;2295;51.050;14.608;2022-12-18T04:31:24;25.08;;;9.73;;
4565;SDS011;2295;51.050;14.608;2022-12-18T04:33:53;22.15;;;9.85;;
4565;SDS011;2295;51.050;14.608;2022-12-18T04:36:21;26.15;;;8.48;;
4565;SDS011;2295;51.050;14.608;2022-12-18T04:38:52;20.13;;;8.13;;
4565;SDS011;2295;51.050;14.608;2022-12-18T04:41:20;16.08;;;7.32;;
4565;SDS011;2295;51.050;14.608;2022-12-18T04:43:50;21.08;;;8.50;;
4565;SDS011;2295;51.050;14.608;2022-12-18T04:46:18;25.95;;;9.45;;
4565;SDS011;2295;51.050;14.608;2022-12-18T04:48:47;21.77;;;8.65;;
4565;SDS011;2295;51.050;14.608;2022-12-18T04:51:15;26.45;;;9.50;;
4565;SDS011;2295;51.050;14.608;2022-12-18T04:53:51;24.45;;;8.68;;
4565;SDS011;2295;51.050;14.608;2022-12-18T04:56:19;25.67;;;10.02;;
4565;SDS011;2295;51.050;14.608;2022-12-18T04:58:47;24.02;;;8.80;;
4565;SDS011;2295;51.050;14.608;2022-12-18T05:01:17;20.90;;;8.93;;
4565;SDS011;2295;51.050;14.608;2022-12-18T05:03:46;20.17;;;8.65;;
4565;SDS011;2295;51.050;14.608;2022-12-18T05:06:15;25.90;;;8.80;;
4565;SDS011;2295;51.050;14.608;2022-12-18T05:08:43;21.73;;;8.55;;
4565;SDS011;2295;51.050;14.608;2022-12-18T05:11:12;27.52;;;9.65;;
4565;SDS011;2295;51.050;14.608;2022-12-18T05:13:42;25.15;;;9.43;;
4565;SDS011;2295;51.050;14.608;2022-12-18T05:16:11;27.70;;;10.75;;
4565;SDS011;2295;51.050;14.608;2022-12-18T05:18:41;34.83;;;11.77;;
4565;SDS011;2295;51.050;14.608;2022-12-18T05:21:09;23.23;;;8.93;;
4565;SDS011;2295;51.050;14.608;2022-12-18T05:23:37;32.53;;;10.23;;
4565;SDS011;2295;51.050;14.608;2022-12-18T05:26:06;29.73;;;10.07;;
4565;SDS011;2295;51.050;14.608;2022-12-18T05:28:43;26.42;;;10.85;;
4565;SDS011;2295;51.050;14.608;2022-12-18T05:31:11;27.80;;;10.07;;
4565;SDS011;2295;51.050;14.608;2022-12-18T05:33:41;34.08;;;11.15;;
4565;SDS011;2295;51.050;14.608;2022-12-18T05:36:09;25.10;;;10.32;;
4565;SDS011;2295;51.050;14.608;2022-12-18T05:38:38;31.35;;;11.65;;
4565;SDS011;2295;51.050;14.608;2022-12-18T05:41:07;32.80;;;9.68;;
4565;SDS011;2295;51.050;14.608;2022-12-18T05:43:36;39.58;;;11.45;;
4565;SDS011;2295;51.050;14.608;2022-12-18T05:46:06;27.48;;;10.70;;
4565;SDS011;2295;51.050;14.608;2022-12-18T05:48:35;24.65;;;10.38;;
4565;SDS011;2295;51.050;14.608;2022-12-18T05:51:06;26.45;;;11.80;;
4565;SDS011;2295;51.050;14.608;2022-12-18T05:53:36;28.63;;;11.02;;
4565;SDS011;2295;51.050;14.608;2022-12-18T05:56:09;32.97;;;10.57;;
4565;SDS011;2295;51.050;14.608;2022-12-18T05:58:39;26.10;;;10.85;;
4565;SDS011;2295;51.050;14.608;2022-12-18T06:01:08;31.30;;;9.90;;
4565;SDS011;2295;51.050;14.608;2022-12-18T06:03:38;33.80;;;13.85;;
4565;SDS011;2295;51.050;14.608;2022-12-18T06:06:15;32.15;;;10.77;;
4565;SDS011;2295;51.050;14.608;2022-12-18T06:08:45;35.40;;;12.52;;
4565;SDS011;2295;51.050;14.608;2022-12-18T06:11:16;29.92;;;11.02;;
4565;SDS011;2295;51.050;14.608;2022-12-18T06:13:45;24.58;;;9.05;;
4565;SDS011;2295;51.050;14.608;2022-12-18T06:16:14;30.50;;;9.70;;
4565;SDS011;2295;51.050;14.608;2022-12-18T06:18:42;24.63;;;8.52;;
4565;SDS011;2295;51.050;14.608;2022-12-18T06:21:10;25.13;;;9.98;;
4565;SDS011;2295;51.050;14.608;2022-12-18T06:23:40;16.45;;;8.18;;
4565;SDS011;2295;51.050;14.608;2022-12-18T06:26:09;28.40;;;9.68;;
4565;SDS011;2295;51.050;14.608;2022-12-18T06:28:38;27.42;;;9.18;;
4565;SDS011;2295;51.050;14.608;2022-12-18T06:31:07;20.48;;;8.23;;
4565;SDS011;2295;51.050;14.608;2022-12-18T06:33:36;23.88;;;9.00;;
4565;SDS011;2295;51.050;14.608;2022-12-18T06:36:06;20.88;;;8.70;;
4565;SDS011;2295;51.050;14.608;2022-12-18T06:38:37;16.92;;;7.45;;
4565;SDS011;2295;51.050;14.608;2022-12-18T06:41:08;25.85;;;8.30;;
4565;SDS011;2295;51.050;14.608;2022-12-18T06:43:37;21.30;;;8.35;;
4565;SDS011;2295;51.050;14.608;2022-12-18T06:46:07;28.63;;;9.27;;
4565;SDS011;2295;51.050;14.608;2022-12-18T06:48:35;20.10;;;9.60;;
4565;SDS011;2295;51.050;14.608;2022-12-18T06:51:04;18.95;;;8.73;;
4565;SDS011;2295;51.050;14.608;2022-12-18T06:53:32;20.92;;;9.38;;
4565;SDS011;2295;51.050;14.608;2022-12-18T06:56:01;17.65;;;8.05;;
4565;SDS011;2295;51.050;14.608;2022-12-18T06:58:36;20.13;;;8.50;;
4565;SDS011;2295;51.050;14.608;2022-12-18T07:01:05;26.13;;;8.52;;
4565;SDS011;2295;51.050;14.608;2022-12-18T07:03:35;21.40;;;9.02;;
4565;SDS011;2295;51.050;14.608;2022-12-18T07:06:05;23.20;;;10.23;;
4565;SDS011;2295;51.050;14.608;2022-12-18T07:08:33;18.35;;;7.75;;
4565;SDS011;2295;51.050;14.608;2022-12-18T07:11:02;24.10;;;9.07;;
4565;SDS011;2295;51.050;14.608;2022-12-18T07:13:31;22.58;;;8.75;;
4565;SDS011;2295;51.050;14.608;2022-12-18T07:16:05;27.23;;;9.43;;
4565;SDS011;2295;51.050;14.608;2022-12-18T07:18:43;28.48;;;12.20;;
4565;SDS011;2295;51.050;14.608;2022-12-18T07:21:15;29.80;;;9.98;;
4565;SDS011;2295;51.050;14.608;2022-12-18T07:23:45;27.50;;;9.65;;
4565;SDS011;2295;51.050;14.608;2022-12-18T07:26:15;17.98;;;8.48;;
4565;SDS011;2295;51.050;14.608;2022-12-18T07:28:45;20.75;;;9.23;;
4565;SDS011;2295;51.050;14.608;2022-12-18T07:31:16;19.63;;;7.90;;
4565;SDS011;2295;51.050;14.608;2022-12-18T07:33:49;25.50;;;9.13;;
4565;SDS011;2295;51.050;14.608;2022-12-18T07:36:18;25.92;;;10.05;;
4565;SDS011;2295;51.050;14.608;2022-12-18T07:38:49;12.52;;;6.90;;
4565;SDS011;2295;51.050;14.608;2022-12-18T07:41:20;19.85;;;7.88;;
4565;SDS011;2295;51.050;14.608;2022-12-18T07:43:48;20.70;;;8.60;;
4565;SDS011;2295;51.050;14.608;2022-12-18T07:46:21;25.70;;;7.50;;
4565;SDS011;2295;51.050;14.608;2022-12-18T07:48:50;25.38;;;10.63;;
4565;SDS011;2295;51.050;14.608;2022-12-18T07:51:18;20.30;;;7.93;;
4565;SDS011;2295;51.050;14.608;2022-12-18T07:53:49;18.75;;;8.00;;
4565;SDS011;2295;51.050;14.608;2022-12-18T07:56:18;21.58;;;7.80;;
4565;SDS011;2295;51.050;14.608;2022-12-18T07:58:53;15.30;;;6.65;;
4565;SDS011;2295;51.050;14.608;2022-12-18T08:01:28;20.23;;;7.38;;
4565;SDS011;2295;51.050;14.608;2022-12-18T08:03:57;16.58;;;7.32;;
4565;SDS011;2295;51.050;14.608;2022-12-18T08:06:25;22.02;;;8.05;;
4565;SDS011;2295;51.050;14.608;2022-12-18T08:08:54;21.80;;;8.77;;
4565;SDS011;2295;51.050;14.608;2022-12-18T08:11:23;16.73;;;7.07;;
4565;SDS011;2295;51.050;14.608;2022-12-18T08:13:53;20.58;;;8.43;;
4565;SDS011;2295;51.050;14.608;2022-12-18T08:16:25;21.33;;;8.43;;
4565;SDS011;2295;51.050;14.608;2022-12-18T08:18:55;26.08;;;8.70;;
4565;SDS011;2295;51.050;14.608;2022-12-18T08:21:24;24.77;;;9.90;;
4565;SDS011;2295;51.050;14.608;2022-12-18T08:23:55;20.75;;;8.82;;
4565;SDS011;2295;51.050;14.608;2022-12-18T08:26:28;14.30;;;7.20;;
4565;SDS011;2295;51.050;14.608;2022-12-18T08:28:58;23.55;;;9.80;;
4565;SDS011;2295;51.050;14.608;2022-12-18T08:31:27;38.08;;;16.52;;
4565;SDS011;2295;51.050;14.608;2022-12-18T08:33:59;61.10;;;23.30;;
4565;SDS011;2295;51.050;14.608;2022-12-18T08:36:27;49.33;;;22.95;;
4565;SDS011;2295;51.050;14.608;2022-12-18T08:38:56;40.88;;;20.55;;
4565;SDS011;2295;51.050;14.608;2022-12-18T08:41:26;32.53;;;16.55;;
4565;SDS011;2295;51.050;14.608;2022-12-18T08:43:54;47.25;;;20.83;;
4565;SDS011;2295;51.050;14.608;2022-12-18T08:46:40;19.02;;;9.13;;
4565;SDS011;2295;51.050;14.608;2022-12-18T08:49:11;20.48;;;9.95;;
4565;SDS011;2295;51.050;14.608;2022-12-18T08:51:39;14.18;;;7.90;;
4565;SDS011;2295;51.050;14.608;2022-12-18T08:54:08;19.48;;;8.68;;
4565;SDS011;2295;51.050;14.608;2022-12-18T08:56:38;22.55;;;9.38;;
4565;SDS011;2295;51.050;14.608;2022-12-18T08:59:07;20.50;;;9.23;;
4565;SDS011;2295;51.050;14.608;2022-12-18T09:01:44;17.02;;;8.30;;
4565;SDS011;2295;51.050;14.608;2022-12-18T09:04:15;23.60;;;10.45;;
4565;SDS011;2295;51.050;14.608;2022-12-18T09:06:46;17.83;;;9.90;;
4565;SDS011;2295;51.050;14.608;2022-12-18T09:09:14;23.83;;;10.35;;
4565;SDS011;2295;51.050;14.608;2022-12-18T09:11:45;24.23;;;9.98;;
4565;SDS011;2295;51.050;14.608;2022-12-18T09:14:17;50.83;;;18.77;;
4565;SDS011;2295;51.050;14.608;2022-12-18T09:16:45;20.17;;;9.82;;
4565;SDS011;2295;51.050;14.608;2022-12-18T09:19:15;17.90;;;8.13;;
4565;SDS011;2295;51.050;14.608;2022-12-18T09:21:43;23.45;;;8.02;;
4565;SDS011;2295;51.050;14.608;2022-12-18T09:24:16;23.05;;;9.20;;
4565;SDS011;2295;51.050;14.608;2022-12-18T09:26:45;18.35;;;9.20;;
4565;SDS011;2295;51.050;14.608;2022-12-18T09:29:13;23.63;;;8.88;;
4565;SDS011;2295;51.050;14.608;2022-12-18T09:31:44;21.13;;;8.93;;
4565;SDS011;2295;51.050;14.608;2022-12-18T09:34:13;17.88;;;7.88;;
4565;SDS011;2295;51.050;14.608;2022-12-18T09:36:47;29.08;;;12.68;;
4565;SDS011;2295;51.050;14.608;2022-12-18T09:39:15;17.02;;;8.00;;
4565;SDS011;2295;51.050;14.608;2022-12-18T09:41:50;14.95;;;6.95;;
4565;SDS011;2295;51.050;14.608;2022-12-18T09:44:22;18.98;;;7.80;;
4565;SDS011;2295;51.050;14.608;2022-12-18T09:47:09;17.05;;;7.72;;
4565;SDS011;2295;51.050;14.608;2022-12-18T09:49:44;19.77;;;7.43;;
4565;SDS011;2295;51.050;14.608;2022-12-18T09:52:14;14.88;;;7.10;;
4565;SDS011;2295;51.050;14.608;2022-12-18T09:54:48;15.18;;;7.20;;
4565;SDS011;2295;51.050;14.608;2022-12-18T09:57:24;17.45;;;8.40;;
4565;SDS011;2295;51.050;14.608;2022-12-18T09:59:54;19.73;;;8.45;;
4565;SDS011;2295;51.050;14.608;2022-12-18T10:02:25;18.17;;;7.70;;
4565;SDS011;2295;51.050;14.608;2022-12-18T10:05:00;15.38;;;7.88;;
4565;SDS011;2295;51.050;14.608;2022-12-18T10:07:38;22.08;;;9.80;;
4565;SDS011;2295;51.050;14.608;2022-12-18T10:10:19;17.98;;;8.63;;
4565;SDS011;2295;51.050;14.608;2022-12-18T10:12:59;16.17;;;6.75;;
4565;SDS011;2295;51.050;14.608;2022-12-18T10:15:39;21.48;;;8.10;;
4565;SDS011;2295;51.050;14.608;2022-12-18T10:18:18;25.73;;;8.45;;
4565;SDS011;2295;51.050;14.608;2022-12-18T10:20:54;21.58;;;8.13;;
4565;SDS011;2295;51.050;14.608;2022-12-18T10:23:26;25.95;;;9.70;;
4565;SDS011;2295;51.050;14.608;2022-12-18T10:26:01;24.00;;;9.15;;
4565;SDS011;2295;51.050;14.608;2022-12-18T10:28:32;21.63;;;8.98;;
4565;SDS011;2295;51.050;14.608;2022-12-18T10:31:06;21.55;;;8.43;;
4565;SDS011;2295;51.050;14.608;2022-12-18T10:33:40;16.67;;;6.80;;
4565;SDS011;2295;51.050;14.608;2022-12-18T10:36:09;19.70;;;9.10;;
4565;SDS011;2295;51.050;14.608;2022-12-18T10:38:38;22.63;;;9.25;;
4565;SDS011;2295;51.050;14.608;2022-12-18T10:41:22;23.13;;;9.90;;
4565;SDS011;2295;51.050;14.608;2022-12-18T10:44:10;24.38;;;9.18;;
4565;SDS011;2295;51.050;14.608;2022-12-18T10:46:44;20.88;;;8.07;;
4565;SDS011;2295;51.050;14.608;2022-12-18T10:49:21;18.25;;;7.50;;
4565;SDS011;2295;51.050;14.608;2022-12-18T10:52:11;20.42;;;8.40;;
4565;SDS011;2295;51.050;14.608;2022-12-18T10:54:46;21.42;;;8.73;;
4565;SDS011;2295;51.050;14.608;2022-12-18T10:57:17;32.55;;;15.50;;
4565;SDS011;2295;51.050;14.608;2022-12-18T10:59:58;24.75;;;9.68;;
4565;SDS011;2295;51.050;14.608;2022-12-18T11:02:33;18.58;;;7.85;;
4565;SDS011;2295;51.050;14.608;2022-12-18T11:05:07;22.25;;;8.00;;
4565;SDS011;2295;51.050;14.608;2022-12-18T11:07:55;24.42;;;9.13;;
4565;SDS011;2295;51.050;14.608;2022-12-18T11:10:25;20.80;;;9.63;;
4565;SDS011;2295;51.050;14.608;2022-12-18T11:13:08;19.42;;;8.20;;
4565;SDS011;2295;51.050;14.608;2022-12-18T11:15:39;21.35;;;9.13;;
4565;SDS011;2295;51.050;14.608;2022-12-18T11:18:15;22.00;;;9.13;;
4565;SDS011;2295;51.050;14.608;2022-12-18T11:20:52;20.50;;;8.00;;
4565;SDS011;2295;51.050;14.608;2022-12-18T11:23:29;23.30;;;9.45;;
4565;SDS011;2295;51.050;14.608;2022-12-18T11:25:58;22.33;;;8.95;;
4565;SDS011;2295;51.050;14.608;2022-12-18T11:28:35;24.27;;;9.48;;
4565;SDS011;2295;51.050;14.608;2022-12-18T11:31:09;27.35;;;10.45;;
4565;SDS011;2295;51.050;14.608;2022-12-18T11:33:50;29.00;;;12.05;;
4565;SDS011;2295;51.050;14.608;2022-12-18T11:36:48;26.08;;;12.48;;
4565;SDS011;2295;51.050;14.608;2022-12-18T11:39:18;27.30;;;12.23;;
4565;SDS011;2295;51.050;14.608;2022-12-18T11:41:59;35.50;;;14.93;;
4565;SDS011;2295;51.050;14.608;2022-12-18T11:44:40;23.20;;;9.00;;
4565;SDS011;2295;51.050;14.608;2022-12-18T11:47:15;28.70;;;11.98;;
4565;SDS011;2295;51.050;14.608;2022-12-18T11:49:51;23.67;;;10.80;;
4565;SDS011;2295;51.050;14.608;2022-12-18T11:52:24;33.92;;;15.40;;
4565;SDS011;2295;51.050;14.608;2022-12-18T11:55:01;37.08;;;14.68;;
4565;SDS011;2295;51.050;14.608;2022-12-18T11:57:39;64.22;;;19.92;;
4565;SDS011;2295;51.050;14.608;2022-12-18T12:00:16;39.35;;;13.73;;
4565;SDS011;2295;51.050;14.608;2022-12-18T12:03:00;35.78;;;13.73;;
4565;SDS011;2295;51.050;14.608;2022-12-18T12:05:53;34.05;;;10.82;;
4565;SDS011;2295;51.050;14.608;2022-12-18T12:08:43;30.52;;;11.55;;
4565;SDS011;2295;51.050;14.608;2022-12-18T12:11:21;28.00;;;11.95;;
4565;SDS011;2295;51.050;14.608;2022-12-18T12:14:04;36.03;;;13.02;;
4565;SDS011;2295;51.050;14.608;2022-12-18T12:16:52;42.50;;;14.50;;
4565;SDS011;2295;51.050;14.608;2022-12-18T12:19:28;31.20;;;11.07;;
4565;SDS011;2295;51.050;14.608;2022-12-18T12:22:05;42.65;;;16.48;;
4565;SDS011;2295;51.050;14.608;2022-12-18T12:24:39;46.40;;;15.05;;
4565;SDS011;2295;51.050;14.608;2022-12-18T12:27:25;41.05;;;14.30;;
4565;SDS011;2295;51.050;14.608;2022-12-18T12:30:00;35.28;;;13.00;;
4565;SDS011;2295;51.050;14.608;2022-12-18T12:32:39;38.15;;;13.52;;
4565;SDS011;2295;51.050;14.608;2022-12-18T12:35:23;33.67;;;12.43;;
4565;SDS011;2295;51.050;14.608;2022-12-18T12:38:00;35.72;;;13.57;;
4565;SDS011;2295;51.050;14.608;2022-12-18T12:40:36;68.55;;;22.63;;
4565;SDS011;2295;51.050;14.608;2022-12-18T12:43:31;51.72;;;18.48;;
4565;SDS011;2295;51.050;14.608;2022-12-18T12:46:04;47.17;;;16.05;;
4565;SDS011;2295;51.050;14.608;2022-12-18T12:48:36;55.08;;;18.23;;
4565;SDS011;2295;51.050;14.608;2022-12-18T12:51:12;36.75;;;14.90;;
4565;SDS011;2295;51.050;14.608;2022-12-18T12:53:44;85.65;;;24.55;;
4565;SDS011;2295;51.050;14.608;2022-12-18T12:56:13;74.00;;;22.60;;
4565;SDS011;2295;51.050;14.608;2022-12-18T12:58:51;52.83;;;16.00;;
4565;SDS011;2295;51.050;14.608;2022-12-18T13:01:28;49.75;;;17.50;;
4565;SDS011;2295;51.050;14.608;2022-12-18T13:04:03;40.35;;;14.88;;
4565;SDS011;2295;51.050;14.608;2022-12-18T13:06:43;47.45;;;17.42;;
4565;SDS011;2295;51.050;14.608;2022-12-18T13:09:16;50.05;;;17.30;;
4565;SDS011;2295;51.050;14.608;2022-12-18T13:11:46;39.92;;;15.63;;
4565;SDS011;2295;51.050;14.608;2022-12-18T13:14:34;126.30;;;33.65;;
4565;SDS011;2295;51.050;14.608;2022-12-18T13:17:17;115.95;;;34.13;;
4565;SDS011;2295;51.050;14.608;2022-12-18T13:20:04;60.65;;;19.10;;
4565;SDS011;2295;51.050;14.608;2022-12-18T13:22:51;92.70;;;29.25;;
4565;SDS011;2295;51.050;14.608;2022-12-18T13:25:28;53.72;;;17.38;;
4565;SDS011;2295;51.050;14.608;2022-12-18T13:28:03;39.30;;;14.52;;
4565;SDS011;2295;51.050;14.608;2022-12-18T13:30:48;46.00;;;15.02;;
4565;SDS011;2295;51.050;14.608;2022-12-18T13:33:38;46.38;;;16.08;;
4565;SDS011;2295;51.050;14.608;2022-12-18T13:36:29;33.17;;;11.40;;
4565;SDS011;2295;51.050;14.608;2022-12-18T13:39:11;32.50;;;11.75;;
4565;SDS011;2295;51.050;14.608;2022-12-18T13:45:38;46.72;;;13.82;;
4565;SDS011;2295;51.050;14.608;2022-12-18T13:48:18;36.47;;;12.18;;
4565;SDS011;2295;51.050;14.608;2022-12-18T13:50:53;31.25;;;10.75;;
4565;SDS011;2295;51.050;14.608;2022-12-18T13:53:27;52.92;;;17.80;;
4565;SDS011;2295;51.050;14.608;2022-12-18T13:55:58;38.35;;;13.20;;
4565;SDS011;2295;51.050;14.608;2022-12-18T13:58:27;33.15;;;10.73;;
4565;SDS011;2295;51.050;14.608;2022-12-18T14:00:55;84.07;;;25.45;;
4565;SDS011;2295;51.050;14.608;2022-12-18T14:03:27;34.22;;;12.07;;
4565;SDS011;2295;51.050;14.608;2022-12-18T14:06:00;62.63;;;20.70;;
4565;SDS011;2295;51.050;14.608;2022-12-18T14:08:33;74.15;;;21.85;;
4565;SDS011;2295;51.050;14.608;2022-12-18T14:11:05;98.30;;;26.67;;
4565;SDS011;2295;51.050;14.608;2022-12-18T14:13:46;121.25;;;30.88;;
4565;SDS011;2295;51.050;14.608;2022-12-18T14:16:18;86.97;;;25.67;;
4565;SDS011;2295;51.050;14.608;2022-12-18T14:18:48;283.80;;;68.00;;
4565;SDS011;2295;51.050;14.608;2022-12-18T14:21:47;102.97;;;29.02;;
4565;SDS011;2295;51.050;14.608;2022-12-18T14:24:18;42.90;;;15.48;;
4565;SDS011;2295;51.050;14.608;2022-12-18T14:26:48;47.88;;;16.90;;
4565;SDS011;2295;51.050;14.608;2022-12-18T14:29:18;40.55;;;14.30;;
4565;SDS011;2295;51.050;14.608;2022-12-18T14:32:05;40.13;;;14.82;;
4565;SDS011;2295;51.050;14.608;2022-12-18T14:34:44;41.72;;;15.05;;
4565;SDS011;2295;51.050;14.608;2022-12-18T14:37:14;27.98;;;10.63;;
4565;SDS011;2295;51.050;14.608;2022-12-18T14:39:55;35.38;;;11.80;;
4565;SDS011;2295;51.050;14.608;2022-12-18T14:42:24;46.60;;;15.65;;
4565;SDS011;2295;51.050;14.608;2022-12-18T14:48:08;58.10;;;22.88;;
4565;SDS011;2295;51.050;14.608;2022-12-18T14:50:57;41.17;;;14.75;;
4565;SDS011;2295;51.050;14.608;2022-12-18T14:53:34;32.10;;;13.18;;
4565;SDS011;2295;51.050;14.608;2022-12-18T14:56:14;38.58;;;13.77;;
4565;SDS011;2295;51.050;14.608;2022-12-18T14:58:45;41.05;;;15.95;;
4565;SDS011;2295;51.050;14.608;2022-12-18T15:01:22;53.78;;;19.38;;
4565;SDS011;2295;51.050;14.608;2022-12-18T15:03:56;51.08;;;17.52;;
4565;SDS011;2295;51.050;14.608;2022-12-18T15:06:28;44.88;;;14.63;;
4565;SDS011;2295;51.050;14.608;2022-12-18T15:09:01;43.65;;;15.13;;
4565;SDS011;2295;51.050;14.608;2022-12-18T15:11:35;54.63;;;17.63;;
4565;SDS011;2295;51.050;14.608;2022-12-18T15:14:22;44.35;;;13.95;;
4565;SDS011;2295;51.050;14.608;2022-12-18T15:16:52;38.53;;;14.40;;
4565;SDS011;2295;51.050;14.608;2022-12-18T15:19:22;43.45;;;15.25;;
4565;SDS011;2295;51.050;14.608;2022-12-18T15:22:01;44.67;;;15.25;;
4565;SDS011;2295;51.050;14.608;2022-12-18T15:24:32;46.47;;;16.52;;
4565;SDS011;2295;51.050;14.608;2022-12-18T15:27:00;62.95;;;19.83;;
4565;SDS011;2295;51.050;14.608;2022-12-18T15:29:29;49.40;;;15.45;;
4565;SDS011;2295;51.050;14.608;2022-12-18T15:31:58;179.07;;;45.47;;
4565;SDS011;2295;51.050;14.608;2022-12-18T15:34:28;123.18;;;31.70;;
4565;SDS011;2295;51.050;14.608;2022-12-18T15:36:56;41.05;;;15.50;;
4565;SDS011;2295;51.050;14.608;2022-12-18T15:39:26;34.75;;;12.15;;
4565;SDS011;2295;51.050;14.608;2022-12-18T15:42:07;41.65;;;15.02;;